MAS1 VVDN-VVTS
Flight info
| Callsign | MAS1 |
|---|---|
| Flight time | 1h 3m |
| Altitude | 34000 |
| Route | SADIN1G SADIN Q1 DOVIN DALAP2J |
| Aircraft | B38M/M-SDE1FGHILORVWXY/HB1 |
Departure
| Time | 2026-04-21 14:40 |
|---|---|
| Airport | Da Nang International Airport (VVDN) |
Arrival
| Time | 2026-04-21 15:44 |
|---|---|
| Airport | Tan Son Nhat International Airport (VVTS) |
| Time | Latitude | Longitude | Altitude | Speed | Heading |
|---|---|---|---|---|---|
| 2026-04-21 13:52 | 16.05561 | 108.20151 | 35 ft | 0 kts | 82° |
| 2026-04-21 14:25 | 16.05560 | 108.20144 | 37 ft | 4 kts | 82° |
| 2026-04-21 14:25 | 16.05557 | 108.20116 | 35 ft | 4 kts | 85° |
| 2026-04-21 14:25 | 16.05556 | 108.20088 | 33 ft | 4 kts | 88° |
| 2026-04-21 14:25 | 16.05556 | 108.20060 | 33 ft | 4 kts | 94° |
| 2026-04-21 14:26 | 16.05560 | 108.20033 | 35 ft | 4 kts | 108° |
| 2026-04-21 14:26 | 16.05572 | 108.20012 | 34 ft | 4 kts | 156° |
| 2026-04-21 14:26 | 16.05581 | 108.20010 | 34 ft | 1 kts | 173° |
| 2026-04-21 14:30 | 16.05570 | 108.20011 | 35 ft | 3 kts | 173° |
| 2026-04-21 14:31 | 16.05543 | 108.20015 | 35 ft | 5 kts | 173° |
| 2026-04-21 14:31 | 16.05499 | 108.20021 | 37 ft | 8 kts | 173° |
| 2026-04-21 14:31 | 16.05439 | 108.20029 | 36 ft | 10 kts | 172° |
| 2026-04-21 14:31 | 16.05363 | 108.20041 | 36 ft | 12 kts | 172° |
| 2026-04-21 14:32 | 16.05274 | 108.20054 | 37 ft | 14 kts | 172° |
| 2026-04-21 14:32 | 16.05172 | 108.20069 | 37 ft | 16 kts | 172° |
| 2026-04-21 14:32 | 16.05057 | 108.20086 | 36 ft | 18 kts | 172° |
| 2026-04-21 14:32 | 16.04926 | 108.20105 | 36 ft | 20 kts | 172° |
| 2026-04-21 14:33 | 16.04783 | 108.20127 | 36 ft | 21 kts | 171° |
| 2026-04-21 14:33 | 16.04638 | 108.20147 | 36 ft | 22 kts | 172° |
| 2026-04-21 14:33 | 16.04483 | 108.20170 | 36 ft | 23 kts | 172° |
| 2026-04-21 14:33 | 16.04318 | 108.20193 | 36 ft | 24 kts | 172° |
| 2026-04-21 14:34 | 16.04146 | 108.20218 | 37 ft | 26 kts | 172° |
| 2026-04-21 14:34 | 16.03965 | 108.20244 | 37 ft | 27 kts | 172° |
| 2026-04-21 14:34 | 16.03776 | 108.20271 | 37 ft | 28 kts | 172° |
| 2026-04-21 14:34 | 16.03615 | 108.20295 | 37 ft | 18 kts | 172° |
| 2026-04-21 14:35 | 16.03504 | 108.20311 | 37 ft | 16 kts | 172° |
| 2026-04-21 14:35 | 16.03386 | 108.20328 | 36 ft | 18 kts | 172° |
| 2026-04-21 14:35 | 16.03252 | 108.20347 | 35 ft | 21 kts | 172° |
| 2026-04-21 14:35 | 16.03172 | 108.20359 | 35 ft | 1 kts | 172° |
| 2026-04-21 14:36 | 16.03168 | 108.20359 | 35 ft | 1 kts | 172° |
| 2026-04-21 14:36 | 16.03154 | 108.20361 | 35 ft | 6 kts | 172° |
| 2026-04-21 14:36 | 16.03089 | 108.20371 | 35 ft | 12 kts | 172° |
| 2026-04-21 14:36 | 16.03002 | 108.20380 | 35 ft | 14 kts | 185° |
| 2026-04-21 14:37 | 16.02939 | 108.20353 | 35 ft | 0 kts | 229° |
| 2026-04-21 14:37 | 16.02924 | 108.20328 | 34 ft | 10 kts | 246° |
| 2026-04-21 14:37 | 16.02935 | 108.20248 | 33 ft | 6 kts | 331° |
| 2026-04-21 14:37 | 16.02969 | 108.20244 | 33 ft | 0 kts | 352° |
| 2026-04-21 14:39 | 16.02973 | 108.20243 | 33 ft | 3 kts | 352° |
| 2026-04-21 14:40 | 16.03176 | 108.20216 | 34 ft | 67 kts | 352° |
| 2026-04-21 14:40 | 16.03890 | 108.20113 | 36 ft | 137 kts | 352° |
| 2026-04-21 14:40 | 16.04997 | 108.19944 | 187 ft | 178 kts | 352° |
| 2026-04-21 14:40 | 16.06280 | 108.19734 | 925 ft | 165 kts | 353° |
| 2026-04-21 14:41 | 16.07437 | 108.19624 | 1746 ft | 176 kts | 359° |
| 2026-04-21 14:41 | 16.08733 | 108.19620 | 2196 ft | 196 kts | 360° |
| 2026-04-21 14:41 | 16.10168 | 108.19607 | 2675 ft | 217 kts | 359° |
| 2026-04-21 14:41 | 16.11762 | 108.19585 | 3082 ft | 243 kts | 359° |
| 2026-04-21 14:42 | 16.13501 | 108.19556 | 3774 ft | 252 kts | 0° |
| 2026-04-21 14:42 | 16.15220 | 108.19939 | 4664 ft | 256 kts | 27° |
| 2026-04-21 14:42 | 16.16568 | 108.21101 | 5513 ft | 259 kts | 55° |
| 2026-04-21 14:42 | 16.17290 | 108.22798 | 6371 ft | 262 kts | 80° |
| 2026-04-21 14:43 | 16.17432 | 108.24737 | 6936 ft | 278 kts | 89° |
| 2026-04-21 14:43 | 16.17494 | 108.26796 | 7566 ft | 289 kts | 89° |
| 2026-04-21 14:43 | 16.17543 | 108.28885 | 8482 ft | 290 kts | 89° |
| 2026-04-21 14:43 | 16.17583 | 108.30998 | 9322 ft | 294 kts | 89° |
| 2026-04-21 14:44 | 16.17617 | 108.33137 | 10140 ft | 298 kts | 89° |
| 2026-04-21 14:44 | 16.17339 | 108.35324 | 10601 ft | 315 kts | 110° |
| 2026-04-21 14:44 | 16.16162 | 108.37291 | 11018 ft | 330 kts | 136° |
| 2026-04-21 14:44 | 16.14212 | 108.38581 | 11534 ft | 339 kts | 161° |
| 2026-04-21 14:45 | 16.11861 | 108.38914 | 12145 ft | 344 kts | 182° |
| 2026-04-21 14:45 | 16.09453 | 108.38886 | 12862 ft | 350 kts | 180° |
| 2026-04-21 14:45 | 16.07005 | 108.38917 | 13589 ft | 354 kts | 180° |
| 2026-04-21 14:45 | 16.04530 | 108.38949 | 14235 ft | 358 kts | 180° |
| 2026-04-21 14:46 | 16.02028 | 108.38981 | 14885 ft | 361 kts | 180° |
| 2026-04-21 14:46 | 15.99504 | 108.39014 | 15514 ft | 365 kts | 180° |
| 2026-04-21 14:46 | 15.96946 | 108.39047 | 16134 ft | 369 kts | 180° |
| 2026-04-21 14:46 | 15.94365 | 108.39080 | 16746 ft | 373 kts | 180° |
| 2026-04-21 14:47 | 15.91757 | 108.39114 | 17333 ft | 377 kts | 180° |
| 2026-04-21 14:47 | 15.89124 | 108.39148 | 17907 ft | 380 kts | 180° |
| 2026-04-21 14:47 | 15.86471 | 108.39182 | 18435 ft | 384 kts | 180° |
| 2026-04-21 14:47 | 15.83787 | 108.39217 | 18927 ft | 387 kts | 180° |
| 2026-04-21 14:48 | 15.81084 | 108.39251 | 19407 ft | 390 kts | 179° |
| 2026-04-21 14:48 | 15.78363 | 108.39286 | 19883 ft | 393 kts | 179° |
| 2026-04-21 14:48 | 15.75622 | 108.39321 | 20357 ft | 395 kts | 179° |
| 2026-04-21 14:48 | 15.72860 | 108.39356 | 20799 ft | 399 kts | 179° |
| 2026-04-21 14:49 | 15.70076 | 108.39391 | 21264 ft | 401 kts | 179° |
| 2026-04-21 14:49 | 15.67274 | 108.39427 | 21712 ft | 404 kts | 179° |
| 2026-04-21 14:49 | 15.64449 | 108.39463 | 22151 ft | 407 kts | 179° |
| 2026-04-21 14:49 | 15.61609 | 108.39499 | 22589 ft | 410 kts | 179° |
| 2026-04-21 14:50 | 15.59711 | 108.39524 | 22868 ft | 412 kts | 179° |
| 2026-04-21 14:50 | 15.55863 | 108.39519 | 23427 ft | 416 kts | 185° |
| 2026-04-21 14:50 | 15.53049 | 108.38819 | 23797 ft | 418 kts | 202° |
| 2026-04-21 14:50 | 15.50364 | 108.37626 | 24112 ft | 422 kts | 204° |
| 2026-04-21 14:51 | 15.47669 | 108.36399 | 24452 ft | 424 kts | 204° |
| 2026-04-21 14:51 | 15.44966 | 108.35147 | 24799 ft | 427 kts | 205° |
| 2026-04-21 14:51 | 15.42253 | 108.33875 | 25150 ft | 429 kts | 205° |
| 2026-04-21 14:51 | 15.39531 | 108.32592 | 25508 ft | 432 kts | 205° |
| 2026-04-21 14:52 | 15.36786 | 108.31296 | 25846 ft | 434 kts | 205° |
| 2026-04-21 14:52 | 15.34034 | 108.29997 | 26193 ft | 437 kts | 205° |
| 2026-04-21 14:52 | 15.31298 | 108.28706 | 26519 ft | 439 kts | 205° |
| 2026-04-21 14:52 | 15.28470 | 108.27371 | 26880 ft | 442 kts | 205° |
| 2026-04-21 14:53 | 15.25664 | 108.26047 | 27219 ft | 444 kts | 205° |
| 2026-04-21 14:53 | 15.22846 | 108.24717 | 27529 ft | 447 kts | 205° |
| 2026-04-21 14:53 | 15.20004 | 108.23378 | 27844 ft | 450 kts | 205° |
| 2026-04-21 14:53 | 15.17148 | 108.22031 | 28140 ft | 453 kts | 205° |
| 2026-04-21 14:54 | 15.14312 | 108.20695 | 28477 ft | 455 kts | 205° |
| 2026-04-21 14:54 | 15.11422 | 108.19333 | 28778 ft | 457 kts | 205° |
| 2026-04-21 14:54 | 15.08444 | 108.18155 | 29054 ft | 461 kts | 193° |
| 2026-04-21 14:54 | 15.05220 | 108.17767 | 29412 ft | 462 kts | 181° |
| 2026-04-21 14:55 | 15.02037 | 108.17649 | 29679 ft | 466 kts | 182° |
| 2026-04-21 14:55 | 14.98789 | 108.17541 | 29953 ft | 468 kts | 181° |
| 2026-04-21 14:55 | 14.95527 | 108.17453 | 30219 ft | 470 kts | 181° |
| 2026-04-21 14:55 | 14.92246 | 108.17375 | 30446 ft | 473 kts | 181° |
| 2026-04-21 14:56 | 14.88949 | 108.17302 | 30677 ft | 474 kts | 181° |
| 2026-04-21 14:56 | 14.85647 | 108.17229 | 30947 ft | 476 kts | 181° |
| 2026-04-21 14:56 | 14.82331 | 108.17155 | 31183 ft | 478 kts | 181° |
| 2026-04-21 14:56 | 14.78992 | 108.17082 | 31407 ft | 480 kts | 181° |
| 2026-04-21 14:57 | 14.75645 | 108.17008 | 31645 ft | 482 kts | 181° |
| 2026-04-21 14:57 | 14.72283 | 108.16934 | 31874 ft | 484 kts | 181° |
| 2026-04-21 14:57 | 14.68906 | 108.16860 | 32097 ft | 486 kts | 181° |
| 2026-04-21 14:57 | 14.65513 | 108.16785 | 32305 ft | 488 kts | 181° |
| 2026-04-21 14:58 | 14.62108 | 108.16710 | 32526 ft | 490 kts | 181° |
| 2026-04-21 14:58 | 14.58696 | 108.16635 | 32734 ft | 492 kts | 181° |
| 2026-04-21 14:58 | 14.55264 | 108.16559 | 32942 ft | 494 kts | 181° |
| 2026-04-21 14:58 | 14.51813 | 108.16483 | 33160 ft | 496 kts | 181° |
| 2026-04-21 14:59 | 14.48356 | 108.16407 | 33383 ft | 497 kts | 181° |
| 2026-04-21 14:59 | 14.44897 | 108.16331 | 33676 ft | 497 kts | 181° |
| 2026-04-21 14:59 | 14.41439 | 108.16256 | 33940 ft | 498 kts | 181° |
| 2026-04-21 15:00 | 14.34512 | 108.16102 | 33955 ft | 496 kts | 181° |
| 2026-04-21 15:00 | 14.27615 | 108.15952 | 33950 ft | 496 kts | 181° |
| 2026-04-21 15:01 | 14.20715 | 108.15804 | 33951 ft | 496 kts | 181° |
| 2026-04-21 15:01 | 14.13800 | 108.15656 | 33949 ft | 497 kts | 181° |
| 2026-04-21 15:02 | 14.06887 | 108.15508 | 33944 ft | 497 kts | 181° |
| 2026-04-21 15:02 | 14.03464 | 108.15435 | 33951 ft | 485 kts | 181° |
| 2026-04-21 15:02 | 14.00074 | 108.15362 | 33957 ft | 489 kts | 181° |
| 2026-04-21 15:03 | 13.93188 | 108.15210 | 33932 ft | 497 kts | 181° |
| 2026-04-21 15:03 | 13.86333 | 108.15060 | 33953 ft | 486 kts | 181° |
| 2026-04-21 15:04 | 13.79541 | 108.14911 | 33920 ft | 497 kts | 181° |
| 2026-04-21 15:04 | 13.72619 | 108.14759 | 33925 ft | 495 kts | 181° |
| 2026-04-21 15:05 | 13.65782 | 108.14610 | 33912 ft | 490 kts | 181° |
| 2026-04-21 15:05 | 13.55554 | 108.14386 | 33916 ft | 490 kts | 181° |
| 2026-04-21 15:06 | 13.48732 | 108.14237 | 33912 ft | 492 kts | 180° |
| 2026-04-21 15:06 | 13.41885 | 108.14088 | 33914 ft | 492 kts | 180° |
| 2026-04-21 15:07 | 13.35042 | 108.13937 | 33905 ft | 492 kts | 181° |
| 2026-04-21 15:07 | 13.28290 | 108.13774 | 33913 ft | 477 kts | 181° |
| 2026-04-21 15:08 | 13.22800 | 108.13643 | 33904 ft | 474 kts | 181° |
| 2026-04-21 15:08 | 13.16210 | 108.13485 | 33915 ft | 473 kts | 180° |
| 2026-04-21 15:09 | 13.09637 | 108.13328 | 33910 ft | 472 kts | 180° |
| 2026-04-21 15:09 | 13.03073 | 108.13170 | 33912 ft | 472 kts | 180° |
| 2026-04-21 15:10 | 12.96504 | 108.13013 | 33909 ft | 472 kts | 180° |
| 2026-04-21 15:10 | 12.89934 | 108.12856 | 33909 ft | 472 kts | 180° |
| 2026-04-21 15:11 | 12.83366 | 108.12699 | 33907 ft | 471 kts | 180° |
| 2026-04-21 15:11 | 12.76844 | 108.12543 | 33904 ft | 468 kts | 180° |
| 2026-04-21 15:12 | 12.70339 | 108.12388 | 33911 ft | 468 kts | 180° |
| 2026-04-21 15:12 | 12.63831 | 108.12249 | 33912 ft | 468 kts | 180° |
| 2026-04-21 15:13 | 12.57325 | 108.12119 | 33911 ft | 468 kts | 180° |
| 2026-04-21 15:13 | 12.50813 | 108.11988 | 33914 ft | 468 kts | 180° |
| 2026-04-21 15:14 | 12.44327 | 108.11858 | 33912 ft | 465 kts | 180° |
| 2026-04-21 15:14 | 12.37866 | 108.11729 | 33928 ft | 465 kts | 180° |
| 2026-04-21 15:15 | 12.31393 | 108.11599 | 33923 ft | 465 kts | 180° |
| 2026-04-21 15:15 | 12.24928 | 108.11470 | 33937 ft | 465 kts | 180° |
| 2026-04-21 15:16 | 12.18469 | 108.11340 | 33937 ft | 465 kts | 180° |
| 2026-04-21 15:16 | 12.12000 | 108.11211 | 33951 ft | 465 kts | 180° |
| 2026-04-21 15:17 | 12.05571 | 108.11082 | 33942 ft | 464 kts | 180° |
| 2026-04-21 15:17 | 11.99110 | 108.10953 | 33956 ft | 465 kts | 180° |
| 2026-04-21 15:18 | 11.92792 | 108.11821 | 33959 ft | 457 kts | 156° |
| 2026-04-21 15:18 | 11.89987 | 108.13314 | 33937 ft | 454 kts | 141° |
| 2026-04-21 15:18 | 11.87601 | 108.15395 | 33974 ft | 451 kts | 134° |
| 2026-04-21 15:19 | 11.83079 | 108.19862 | 33969 ft | 452 kts | 132° |
| 2026-04-21 15:19 | 11.78652 | 108.24417 | 33967 ft | 453 kts | 132° |
| 2026-04-21 15:20 | 11.74014 | 108.28901 | 33957 ft | 468 kts | 144° |
| 2026-04-21 15:20 | 11.68527 | 108.32610 | 33947 ft | 478 kts | 144° |
| 2026-04-21 15:21 | 11.62978 | 108.36380 | 33955 ft | 480 kts | 144° |
| 2026-04-21 15:21 | 11.60036 | 108.38016 | 33938 ft | 485 kts | 158° |
| 2026-04-21 15:21 | 11.56749 | 108.38748 | 33893 ft | 484 kts | 176° |
| 2026-04-21 15:22 | 11.53420 | 108.38477 | 33399 ft | 480 kts | 193° |
| 2026-04-21 15:22 | 11.50279 | 108.37345 | 32551 ft | 483 kts | 206° |
| 2026-04-21 15:22 | 11.47410 | 108.35535 | 31551 ft | 488 kts | 219° |
| 2026-04-21 15:22 | 11.45012 | 108.33075 | 30577 ft | 493 kts | 234° |
| 2026-04-21 15:23 | 11.43332 | 108.30035 | 29530 ft | 495 kts | 250° |
| 2026-04-21 15:23 | 11.42060 | 108.26767 | 28490 ft | 498 kts | 246° |
| 2026-04-21 15:23 | 11.40596 | 108.23552 | 27431 ft | 501 kts | 245° |
| 2026-04-21 15:23 | 11.39101 | 108.20350 | 26402 ft | 498 kts | 245° |
| 2026-04-21 15:24 | 11.37638 | 108.17180 | 25472 ft | 491 kts | 245° |
| 2026-04-21 15:24 | 11.36203 | 108.14051 | 24575 ft | 484 kts | 245° |
| 2026-04-21 15:24 | 11.34800 | 108.10975 | 23715 ft | 473 kts | 245° |
| 2026-04-21 15:24 | 11.33446 | 108.08004 | 22806 ft | 463 kts | 245° |
| 2026-04-21 15:25 | 11.32100 | 108.05063 | 21859 ft | 454 kts | 245° |
| 2026-04-21 15:25 | 11.30780 | 108.02178 | 21017 ft | 444 kts | 245° |
| 2026-04-21 15:25 | 11.29506 | 107.99371 | 20460 ft | 428 kts | 245° |
| 2026-04-21 15:25 | 11.28289 | 107.96669 | 20018 ft | 412 kts | 245° |
| 2026-04-21 15:26 | 11.27113 | 107.94064 | 19575 ft | 398 kts | 245° |
| 2026-04-21 15:26 | 11.25972 | 107.91547 | 19151 ft | 385 kts | 245° |
| 2026-04-21 15:26 | 11.24866 | 107.89117 | 18757 ft | 373 kts | 245° |
| 2026-04-21 15:26 | 11.23788 | 107.86759 | 18370 ft | 361 kts | 245° |
| 2026-04-21 15:27 | 11.22733 | 107.84462 | 17952 ft | 360 kts | 245° |
| 2026-04-21 15:27 | 11.21644 | 107.82143 | 17500 ft | 366 kts | 244° |
| 2026-04-21 15:27 | 11.20538 | 107.79792 | 17090 ft | 369 kts | 244° |
| 2026-04-21 15:27 | 11.19434 | 107.77437 | 16702 ft | 368 kts | 244° |
| 2026-04-21 15:28 | 11.18336 | 107.75088 | 16298 ft | 367 kts | 244° |
| 2026-04-21 15:28 | 11.17243 | 107.72749 | 15903 ft | 365 kts | 245° |
| 2026-04-21 15:28 | 11.16151 | 107.70415 | 15451 ft | 365 kts | 244° |
| 2026-04-21 15:28 | 11.15062 | 107.68088 | 15086 ft | 363 kts | 245° |
| 2026-04-21 15:29 | 11.13984 | 107.65777 | 14712 ft | 360 kts | 245° |
| 2026-04-21 15:29 | 11.12910 | 107.63478 | 14328 ft | 358 kts | 245° |
| 2026-04-21 15:29 | 11.11842 | 107.61194 | 13940 ft | 356 kts | 245° |
| 2026-04-21 15:29 | 11.10781 | 107.58925 | 13520 ft | 355 kts | 245° |
| 2026-04-21 15:30 | 11.09718 | 107.56656 | 13043 ft | 355 kts | 244° |
| 2026-04-21 15:30 | 11.08657 | 107.54391 | 12604 ft | 354 kts | 245° |
| 2026-04-21 15:30 | 11.07605 | 107.52142 | 12223 ft | 351 kts | 245° |
| 2026-04-21 15:30 | 11.06559 | 107.49908 | 11856 ft | 348 kts | 244° |
| 2026-04-21 15:31 | 11.05519 | 107.47689 | 11467 ft | 346 kts | 244° |
| 2026-04-21 15:31 | 11.04489 | 107.45491 | 11202 ft | 340 kts | 244° |
| 2026-04-21 15:31 | 11.03485 | 107.43348 | 11053 ft | 331 kts | 244° |
| 2026-04-21 15:31 | 11.02506 | 107.41261 | 10888 ft | 322 kts | 244° |
| 2026-04-21 15:32 | 11.01555 | 107.39230 | 10747 ft | 314 kts | 246° |
| 2026-04-21 15:32 | 11.00870 | 107.37142 | 10475 ft | 311 kts | 255° |
| 2026-04-21 15:32 | 11.00279 | 107.35038 | 10220 ft | 307 kts | 253° |
| 2026-04-21 15:32 | 10.99679 | 107.32981 | 10064 ft | 299 kts | 253° |
| 2026-04-21 15:33 | 10.99079 | 107.30966 | 9804 ft | 297 kts | 253° |
| 2026-04-21 15:33 | 10.98570 | 107.28927 | 9347 ft | 300 kts | 258° |
| 2026-04-21 15:33 | 10.98139 | 107.26823 | 8747 ft | 308 kts | 258° |
| 2026-04-21 15:33 | 10.97686 | 107.24666 | 8161 ft | 315 kts | 258° |
| 2026-04-21 15:34 | 10.97218 | 107.22477 | 7562 ft | 318 kts | 258° |
| 2026-04-21 15:34 | 10.96742 | 107.20272 | 7055 ft | 318 kts | 258° |
| 2026-04-21 15:34 | 10.96270 | 107.18091 | 6673 ft | 312 kts | 259° |
| 2026-04-21 15:34 | 10.95807 | 107.15963 | 6358 ft | 304 kts | 259° |
| 2026-04-21 15:35 | 10.95356 | 107.13885 | 6051 ft | 298 kts | 259° |
| 2026-04-21 15:35 | 10.94912 | 107.11847 | 5733 ft | 292 kts | 258° |
| 2026-04-21 15:35 | 10.94478 | 107.09848 | 5396 ft | 287 kts | 258° |
| 2026-04-21 15:35 | 10.94052 | 107.07889 | 5120 ft | 280 kts | 258° |
| 2026-04-21 15:36 | 10.93634 | 107.05978 | 4798 ft | 273 kts | 258° |
| 2026-04-21 15:36 | 10.93234 | 107.04145 | 4453 ft | 265 kts | 257° |
| 2026-04-21 15:36 | 10.92841 | 107.02345 | 4159 ft | 255 kts | 257° |
| 2026-04-21 15:36 | 10.92472 | 107.00644 | 4066 ft | 236 kts | 256° |
| 2026-04-21 15:37 | 10.92131 | 106.99076 | 4051 ft | 220 kts | 256° |
| 2026-04-21 15:37 | 10.91806 | 106.97596 | 4033 ft | 211 kts | 256° |
| 2026-04-21 15:37 | 10.91502 | 106.96193 | 4035 ft | 195 kts | 257° |
| 2026-04-21 15:37 | 10.91216 | 106.94881 | 3917 ft | 186 kts | 256° |
| 2026-04-21 15:38 | 10.90937 | 106.93603 | 3682 ft | 186 kts | 256° |
| 2026-04-21 15:38 | 10.90655 | 106.92311 | 3517 ft | 188 kts | 255° |
| 2026-04-21 15:38 | 10.90368 | 106.91011 | 3355 ft | 189 kts | 255° |
| 2026-04-21 15:38 | 10.90084 | 106.89697 | 3204 ft | 190 kts | 254° |
| 2026-04-21 15:39 | 10.89794 | 106.88376 | 2987 ft | 192 kts | 254° |
| 2026-04-21 15:39 | 10.89503 | 106.87038 | 2722 ft | 196 kts | 253° |
| 2026-04-21 15:39 | 10.89213 | 106.85677 | 2480 ft | 198 kts | 256° |
| 2026-04-21 15:39 | 10.89002 | 106.84295 | 2303 ft | 194 kts | 255° |
| 2026-04-21 15:40 | 10.88678 | 106.82984 | 2097 ft | 187 kts | 248° |
| 2026-04-21 15:40 | 10.88276 | 106.81743 | 2054 ft | 185 kts | 244° |
| 2026-04-21 15:40 | 10.87823 | 106.80513 | 2071 ft | 185 kts | 243° |
| 2026-04-21 15:40 | 10.87361 | 106.79292 | 1979 ft | 184 kts | 243° |
| 2026-04-21 15:41 | 10.86904 | 106.78083 | 2014 ft | 184 kts | 243° |
| 2026-04-21 15:41 | 10.86447 | 106.76856 | 2053 ft | 187 kts | 244° |
| 2026-04-21 15:41 | 10.85983 | 106.75617 | 1816 ft | 184 kts | 243° |
| 2026-04-21 15:41 | 10.85531 | 106.74417 | 1656 ft | 179 kts | 244° |
| 2026-04-21 15:42 | 10.85106 | 106.73284 | 1456 ft | 164 kts | 244° |
| 2026-04-21 15:42 | 10.84705 | 106.72212 | 1212 ft | 161 kts | 244° |
| 2026-04-21 15:42 | 10.84306 | 106.71158 | 1009 ft | 160 kts | 245° |
| 2026-04-21 15:42 | 10.83908 | 106.70101 | 817 ft | 158 kts | 246° |
| 2026-04-21 15:43 | 10.83524 | 106.69072 | 612 ft | 153 kts | 246° |
| 2026-04-21 15:43 | 10.83146 | 106.68073 | 450 ft | 150 kts | 247° |
| 2026-04-21 15:43 | 10.82777 | 106.67085 | 245 ft | 149 kts | 245° |
| 2026-04-21 15:43 | 10.82404 | 106.66103 | 53 ft | 145 kts | 246° |
| 2026-04-21 15:44 | 10.82097 | 106.65294 | 38 ft | 90 kts | 249° |
| 2026-04-21 15:44 | 10.81953 | 106.64919 | 38 ft | 52 kts | 248° |
| 2026-04-21 15:44 | 10.81808 | 106.64653 | 40 ft | 32 kts | 226° |
| 2026-04-21 15:44 | 10.81711 | 106.64569 | 42 ft | 0 kts | 220° |
| 2026-04-21 15:45 | 10.81690 | 106.64550 | 42 ft | 9 kts | 220° |
| 2026-04-21 15:45 | 10.81626 | 106.64485 | 40 ft | 16 kts | 235° |
| 2026-04-21 15:45 | 10.81574 | 106.64373 | 38 ft | 19 kts | 249° |
| 2026-04-21 15:45 | 10.81503 | 106.64309 | 39 ft | 14 kts | 168° |
| 2026-04-21 15:46 | 10.81409 | 106.64343 | 40 ft | 15 kts | 160° |
| 2026-04-21 15:46 | 10.81306 | 106.64383 | 39 ft | 10 kts | 159° |
| 2026-04-21 15:46 | 10.81284 | 106.64391 | 39 ft | 0 kts | 160° |
| 2026-04-21 15:47 | 10.81282 | 106.64392 | 38 ft | 2 kts | 160° |
| 2026-04-21 15:48 | 10.81273 | 106.64396 | 38 ft | 5 kts | 152° |
| 2026-04-21 15:48 | 10.81253 | 106.64463 | 40 ft | 16 kts | 71° |
| 2026-04-21 15:48 | 10.81305 | 106.64603 | 43 ft | 20 kts | 68° |
| 2026-04-21 15:48 | 10.81358 | 106.64742 | 43 ft | 13 kts | 69° |
| 2026-04-21 15:49 | 10.81365 | 106.64761 | 42 ft | 0 kts | 68° |
| 2026-04-21 15:49 | 10.81366 | 106.64762 | 42 ft | 1 kts | 68° |
| 2026-04-21 15:49 | 10.81380 | 106.64799 | 43 ft | 12 kts | 68° |
| 2026-04-21 15:49 | 10.81414 | 106.64886 | 45 ft | 13 kts | 69° |
| 2026-04-21 15:50 | 10.81450 | 106.64984 | 42 ft | 17 kts | 70° |
| 2026-04-21 15:50 | 10.81496 | 106.65109 | 41 ft | 21 kts | 68° |
| 2026-04-21 15:50 | 10.81505 | 106.65133 | 40 ft | 2 kts | 67° |
| 2026-04-21 15:50 | 10.81516 | 106.65157 | 40 ft | 6 kts | 67° |
| 2026-04-21 15:51 | 10.81542 | 106.65227 | 40 ft | 16 kts | 69° |
| 2026-04-21 15:51 | 10.81598 | 106.65368 | 37 ft | 28 kts | 68° |
| 2026-04-21 15:51 | 10.81670 | 106.65567 | 37 ft | 20 kts | 68° |
| 2026-04-21 15:51 | 10.81728 | 106.65736 | 37 ft | 30 kts | 87° |
| 2026-04-21 15:52 | 10.81681 | 106.65895 | 39 ft | 15 kts | 73° |
| 2026-04-21 15:52 | 10.81729 | 106.66023 | 39 ft | 18 kts | 75° |
| 2026-04-21 15:52 | 10.81722 | 106.66055 | 40 ft | 3 kts | 141° |
| 2026-04-21 15:52 | 10.81670 | 106.66054 | 40 ft | 11 kts | 184° |
| 2026-04-21 15:53 | 10.81609 | 106.66072 | 40 ft | 4 kts | 110° |
| 2026-04-21 15:53 | 10.81604 | 106.66112 | 40 ft | 7 kts | 96° |
| 2026-04-21 15:53 | 10.81601 | 106.66137 | 40 ft | 1 kts | 96° |
| 2026-04-21 15:53 | 10.81600 | 106.66149 | 40 ft | 0 kts | 94° |